Time;durP1;ratioP1;P1;durP2;ratioP2;P2;SDS_P1;SDS_P2;PMS_P1;PMS_P2;Temp;Humidity;BMP_temperature;BMP_pressure;BME280_temperature;BME280_humidity;BME280_pressure;Samples;Min_cycle;Max_cycle;Signal;HPM_P1;HPM_P2
2023/08/07 00:00:57;;;;;;;1.33;0.88;;;;;;;;;;10368725;28;20072;-52
2023/08/07 00:05:57;;;;;;;1.15;0.73;;;;;;;;;;10368496;28;20026;-53
2023/08/07 00:11:10;;;;;;;0.75;0.60;;;;;;;;;;10368364;28;20021;-53
2023/08/07 00:16:11;;;;;;;0.70;0.70;;;;;;;;;;10369142;28;20034;-53
2023/08/07 00:21:12;;;;;;;1.42;0.75;;;;;;;;;;10368151;28;20033;-49
2023/08/07 00:26:12;;;;;;;3.53;1.00;;;;;;;;;;10368880;28;20038;-51
2023/08/07 00:31:13;;;;;;;0.63;0.63;;;;;;;;;;10367847;28;20072;-51
2023/08/07 00:36:13;;;;;;;0.70;0.70;;;;;;;;;;10367695;28;20049;-53
2023/08/07 00:41:17;;;;;;;5.38;0.88;;;;;;;;;;10368153;28;20030;-55
2023/08/07 00:46:19;;;;;;;1.00;0.90;;;;;;;;;;10382756;28;20025;-51
2023/08/07 00:51:20;;;;;;;1.98;0.63;;;;;;;;;;10372849;28;20110;-51
2023/08/07 00:56:23;;;;;;;0.93;0.80;;;;;;;;;;10374385;28;20482;-55
2023/08/07 01:01:24;;;;;;;5.80;0.80;;;;;;;;;;10374243;28;20053;-52
2023/08/07 01:06:24;;;;;;;1.48;0.85;;;;;;;;;;10375595;28;20040;-52
2023/08/07 01:11:45;;;;;;;0.70;0.70;;;;;;;;;;10375488;28;20053;-52
2023/08/07 01:17:01;;;;;;;2.72;0.77;;;;;;;;;;10374780;28;20470;-52
2023/08/07 01:22:13;;;;;;;5.28;0.70;;;;;;;;;;10374055;28;20026;-51
2023/08/07 01:27:19;;;;;;;1.38;0.98;;;;;;;;;;10374349;28;20140;-49
2023/08/07 01:32:33;;;;;;;0.70;0.70;;;;;;;;;;10374840;28;20029;-52
2023/08/07 01:37:38;;;;;;;1.95;0.70;;;;;;;;;;10372645;28;20087;-48
2023/08/07 01:42:39;;;;;;;4.43;0.60;;;;;;;;;;10372866;28;20026;-52
2023/08/07 01:47:39;;;;;;;1.30;0.70;;;;;;;;;;10374132;28;20125;-52
2023/08/07 01:52:40;;;;;;;2.72;0.90;;;;;;;;;;10373270;28;20026;-53
2023/08/07 01:57:41;;;;;;;0.50;0.50;;;;;;;;;;10373232;28;20025;-54
2023/08/07 02:02:41;;;;;;;0.70;0.70;;;;;;;;;;10373021;28;20034;-53
2023/08/07 02:07:42;;;;;;;5.53;0.75;;;;;;;;;;10372142;28;20465;-53
2023/08/07 02:12:43;;;;;;;0.80;0.80;;;;;;;;;;10373634;28;20037;-53
2023/08/07 02:17:43;;;;;;;2.63;0.80;;;;;;;;;;10372441;28;20045;-55
2023/08/07 02:22:44;;;;;;;2.65;0.70;;;;;;;;;;10372343;28;20037;-53
2023/08/07 02:27:45;;;;;;;0.80;0.70;;;;;;;;;;10372139;28;20036;-53
2023/08/07 02:32:46;;;;;;;7.28;0.90;;;;;;;;;;10371728;28;20080;-53
2023/08/07 02:37:46;;;;;;;3.85;0.90;;;;;;;;;;10371692;28;20048;-52
2023/08/07 02:42:47;;;;;;;1.33;0.88;;;;;;;;;;10372135;28;20038;-53
2023/08/07 02:47:48;;;;;;;1.80;0.88;;;;;;;;;;10371329;28;20025;-53
2023/08/07 02:52:48;;;;;;;2.35;0.90;;;;;;;;;;10371095;28;20041;-52
2023/08/07 02:57:49;;;;;;;1.13;0.70;;;;;;;;;;10371442;28;20037;-53
2023/08/07 03:02:49;;;;;;;1.40;0.77;;;;;;;;;;10371151;28;20037;-53
2023/08/07 03:07:50;;;;;;;4.38;0.82;;;;;;;;;;10370955;28;20034;-52
2023/08/07 03:12:50;;;;;;;2.45;0.70;;;;;;;;;;10369868;28;20026;-53
2023/08/07 03:17:51;;;;;;;8.55;0.95;;;;;;;;;;10370611;28;20386;-53
2023/08/07 03:22:52;;;;;;;1.30;0.75;;;;;;;;;;10371057;28;20421;-52
2023/08/07 03:27:52;;;;;;;0.80;0.80;;;;;;;;;;10370454;28;20380;-52
2023/08/07 03:32:53;;;;;;;0.80;0.73;;;;;;;;;;10370502;28;20030;-52
2023/08/07 03:37:53;;;;;;;1.23;0.70;;;;;;;;;;10369323;28;20204;-49
2023/08/07 03:42:54;;;;;;;2.47;0.90;;;;;;;;;;10369255;28;20489;-56
2023/08/07 03:47:55;;;;;;;3.25;1.10;;;;;;;;;;10369065;28;20022;-51
2023/08/07 03:52:55;;;;;;;1.83;0.82;;;;;;;;;;10368747;28;20030;-53
2023/08/07 03:57:56;;;;;;;0.70;0.70;;;;;;;;;;10368718;28;20030;-52
2023/08/07 04:02:56;;;;;;;2.20;1.10;;;;;;;;;;10368641;28;20030;-53
2023/08/07 04:07:57;;;;;;;1.75;0.77;;;;;;;;;;10368961;28;20026;-51
2023/08/07 04:12:57;;;;;;;1.67;1.00;;;;;;;;;;10368746;28;20041;-52
2023/08/07 04:17:58;;;;;;;1.27;0.80;;;;;;;;;;10368178;28;20030;-52
2023/08/07 04:22:59;;;;;;;5.30;1.00;;;;;;;;;;10368272;28;20037;-52
2023/08/07 04:27:59;;;;;;;10.57;0.80;;;;;;;;;;10368014;28;20022;-51
2023/08/07 04:33:00;;;;;;;5.78;0.85;;;;;;;;;;10368301;28;20029;-53
2023/08/07 04:38:02;;;;;;;6.30;1.10;;;;;;;;;;10367427;28;20044;-52
2023/08/07 04:43:02;;;;;;;0.98;0.80;;;;;;;;;;10368269;28;20034;-53
2023/08/07 04:48:03;;;;;;;1.00;0.70;;;;;;;;;;10367483;28;20386;-51
2023/08/07 04:53:07;;;;;;;4.30;1.13;;;;;;;;;;10367976;28;20116;-52
2023/08/07 04:58:08;;;;;;;0.80;0.80;;;;;;;;;;10367865;28;20026;-52
2023/08/07 05:03:08;;;;;;;3.17;1.27;;;;;;;;;;10367156;28;20022;-53
2023/08/07 05:08:09;;;;;;;4.35;1.15;;;;;;;;;;10367969;28;20041;-53
2023/08/07 05:13:09;;;;;;;3.90;0.90;;;;;;;;;;10367126;28;20340;-53
2023/08/07 05:18:10;;;;;;;1.65;1.05;;;;;;;;;;10367408;28;20489;-53
2023/08/07 05:23:11;;;;;;;3.47;0.90;;;;;;;;;;10366944;28;20474;-52
2023/08/07 05:28:11;;;;;;;1.17;0.80;;;;;;;;;;10366397;28;20033;-52
2023/08/07 05:33:14;;;;;;;1.08;0.90;;;;;;;;;;10367476;28;20052;-53
2023/08/07 05:38:15;;;;;;;4.43;1.20;;;;;;;;;;10388822;23;20438;-59
2023/08/07 05:43:17;;;;;;;2.88;0.82;;;;;;;;;;10373906;28;20076;-66
2023/08/07 05:48:17;;;;;;;3.10;0.85;;;;;;;;;;10373533;28;20413;-66
2023/08/07 05:53:19;;;;;;;1.55;0.90;;;;;;;;;;10373837;28;20026;-66
2023/08/07 05:58:20;;;;;;;1.42;0.88;;;;;;;;;;10373023;28;20515;-66
2023/08/07 06:03:20;;;;;;;2.88;0.90;;;;;;;;;;10373356;28;20037;-66
2023/08/07 06:08:21;;;;;;;7.63;1.20;;;;;;;;;;10372797;28;20030;-64
2023/08/07 06:13:21;;;;;;;5.88;1.08;;;;;;;;;;10371799;28;20044;-68
2023/08/07 06:18:22;;;;;;;2.75;1.10;;;;;;;;;;10372356;28;20568;-69
2023/08/07 06:23:23;;;;;;;4.38;1.30;;;;;;;;;;10372532;28;20056;-69
2023/08/07 06:28:23;;;;;;;5.05;1.30;;;;;;;;;;10372779;28;20030;-60
2023/08/07 06:33:24;;;;;;;22.75;1.42;;;;;;;;;;10372732;28;20040;-60
2023/08/07 06:38:24;;;;;;;9.23;1.10;;;;;;;;;;10371737;28;20045;-60
2023/08/07 06:43:25;;;;;;;3.92;1.20;;;;;;;;;;10371856;28;20104;-60
2023/08/07 06:48:26;;;;;;;5.00;1.00;;;;;;;;;;10371901;28;20200;-60
2023/08/07 06:53:26;;;;;;;4.72;1.45;;;;;;;;;;10371672;28;20034;-60
2023/08/07 06:58:27;;;;;;;3.45;1.10;;;;;;;;;;10371484;28;20033;-62
2023/08/07 07:03:27;;;;;;;3.35;0.98;;;;;;;;;;10370821;28;20026;-60
2023/08/07 07:08:28;;;;;;;6.60;1.35;;;;;;;;;;10370977;28;20034;-60
2023/08/07 07:13:28;;;;;;;2.65;0.93;;;;;;;;;;10370474;28;20026;-60
2023/08/07 07:18:29;;;;;;;1.38;0.98;;;;;;;;;;10370568;28;20030;-60
2023/08/07 07:23:30;;;;;;;2.88;0.90;;;;;;;;;;10370118;28;20049;-60
2023/08/07 07:28:31;;;;;;;1.63;0.93;;;;;;;;;;10370790;28;20041;-60
2023/08/07 07:33:32;;;;;;;1.33;0.90;;;;;;;;;;10369781;28;20038;-60
2023/08/07 07:38:32;;;;;;;6.53;1.13;;;;;;;;;;10369224;28;20049;-60
2023/08/07 07:43:33;;;;;;;2.95;1.05;;;;;;;;;;10369929;28;20022;-61
2023/08/07 07:48:33;;;;;;;1.85;1.00;;;;;;;;;;10369204;28;20100;-60
2023/08/07 07:53:34;;;;;;;4.20;1.00;;;;;;;;;;10369031;28;20405;-60
2023/08/07 07:58:35;;;;;;;1.10;1.00;;;;;;;;;;10368259;28;20261;-60
2023/08/07 08:03:36;;;;;;;3.38;1.10;;;;;;;;;;10369258;28;20055;-60
2023/08/07 08:08:36;;;;;;;6.35;0.88;;;;;;;;;;10368555;28;20026;-60
2023/08/07 08:13:39;;;;;;;1.20;1.00;;;;;;;;;;10368347;28;20038;-60
2023/08/07 08:18:39;;;;;;;0.75;0.70;;;;;;;;;;10368869;28;20026;-60
2023/08/07 08:23:40;;;;;;;1.10;1.00;;;;;;;;;;10368488;28;20049;-60
2023/08/07 08:28:40;;;;;;;1.35;0.90;;;;;;;;;;10368588;28;20026;-60
2023/08/07 08:33:41;;;;;;;2.15;0.93;;;;;;;;;;10368342;28;20034;-60
2023/08/07 08:38:45;;;;;;;3.50;0.80;;;;;;;;;;10367556;28;20048;-60
2023/08/07 08:43:46;;;;;;;2.63;1.00;;;;;;;;;;10367652;28;20390;-60
2023/08/07 08:48:51;;;;;;;1.02;0.93;;;;;;;;;;10368057;28;20030;-60
2023/08/07 08:53:53;;;;;;;1.13;1.02;;;;;;;;;;10367750;28;20480;-60
2023/08/07 08:58:54;;;;;;;1.58;0.93;;;;;;;;;;10367254;28;20385;-60
2023/08/07 09:03:55;;;;;;;2.38;0.70;;;;;;;;;;10367765;28;20032;-59
2023/08/07 09:08:58;;;;;;;0.77;0.77;;;;;;;;;;10367286;28;20030;-60
2023/08/07 09:14:01;;;;;;;2.17;0.80;;;;;;;;;;10373157;28;20121;-60
2023/08/07 09:19:02;;;;;;;1.80;0.95;;;;;;;;;;10373768;28;20530;-60
2023/08/07 09:24:02;;;;;;;0.80;0.75;;;;;;;;;;10374677;28;20033;-60
2023/08/07 09:29:03;;;;;;;1.10;0.98;;;;;;;;;;10374554;28;20057;-60
2023/08/07 09:34:04;;;;;;;1.25;0.90;;;;;;;;;;10373438;28;20030;-60
2023/08/07 09:39:05;;;;;;;4.28;0.80;;;;;;;;;;10374227;28;20100;-60
2023/08/07 09:44:10;;;;;;;1.17;0.88;;;;;;;;;;10373842;28;20375;-60
2023/08/07 09:49:11;;;;;;;1.35;0.93;;;;;;;;;;10374373;28;20080;-60
2023/08/07 09:54:12;;;;;;;0.80;0.80;;;;;;;;;;10373559;28;20474;-60
2023/08/07 09:59:13;;;;;;;1.70;0.88;;;;;;;;;;10373383;28;20029;-60
2023/08/07 10:04:15;;;;;;;1.08;0.90;;;;;;;;;;10372552;28;20037;-60
2023/08/07 10:09:16;;;;;;;1.17;0.80;;;;;;;;;;10372880;28;20088;-60
2023/08/07 10:14:17;;;;;;;1.70;0.88;;;;;;;;;;10373587;28;20092;-60
2023/08/07 10:19:18;;;;;;;0.95;0.80;;;;;;;;;;10372497;28;20065;-60
2023/08/07 10:24:19;;;;;;;4.93;0.68;;;;;;;;;;10372321;28;20033;-60
2023/08/07 10:29:21;;;;;;;0.80;0.80;;;;;;;;;;10371252;28;20145;-60
2023/08/07 10:34:22;;;;;;;1.58;0.90;;;;;;;;;;10370451;28;20040;-61
2023/08/07 10:39:23;;;;;;;0.85;0.70;;;;;;;;;;10372442;28;20029;-60
2023/08/07 10:44:33;;;;;;;2.60;0.90;;;;;;;;;;10372395;28;20090;-60
2023/08/07 10:49:38;;;;;;;2.05;0.85;;;;;;;;;;10371616;28;20113;-60
2023/08/07 10:54:49;;;;;;;2.45;0.73;;;;;;;;;;10371102;28;20486;-60
2023/08/07 10:59:51;;;;;;;1.42;0.80;;;;;;;;;;10371132;28;20140;-60
2023/08/07 11:04:53;;;;;;;0.77;0.75;;;;;;;;;;10371224;28;20158;-60
2023/08/07 11:09:55;;;;;;;1.52;0.90;;;;;;;;;;10370662;28;20040;-60
2023/08/07 11:14:56;;;;;;;1.25;0.70;;;;;;;;;;10370284;28;20037;-60
2023/08/07 11:19:57;;;;;;;0.85;0.57;;;;;;;;;;10370673;28;20025;-60
2023/08/07 11:24:58;;;;;;;1.85;0.80;;;;;;;;;;10370429;28;20497;-60
2023/08/07 11:29:58;;;;;;;1.98;0.75;;;;;;;;;;10370363;28;20029;-60
2023/08/07 11:34:59;;;;;;;0.60;0.60;;;;;;;;;;10368562;28;20049;-60
2023/08/07 11:40:02;;;;;;;1.13;0.63;;;;;;;;;;10368448;28;20026;-60
2023/08/07 11:45:04;;;;;;;1.10;0.70;;;;;;;;;;10369885;28;20030;-60
2023/08/07 11:50:06;;;;;;;0.50;0.50;;;;;;;;;;10369689;28;20021;-60
2023/08/07 11:55:09;;;;;;;0.70;0.68;;;;;;;;;;10368890;28;20034;-60
2023/08/07 12:00:13;;;;;;;2.10;0.98;;;;;;;;;;10368582;28;20022;-61
2023/08/07 12:05:13;;;;;;;2.10;0.93;;;;;;;;;;10368823;28;20030;-60
2023/08/07 12:10:14;;;;;;;1.65;0.60;;;;;;;;;;10368891;28;20034;-60
2023/08/07 12:15:16;;;;;;;4.53;1.40;;;;;;;;;;10368162;28;20029;-60
2023/08/07 12:20:17;;;;;;;1.77;0.90;;;;;;;;;;10368189;28;20403;-60
2023/08/07 12:25:17;;;;;;;7.45;0.77;;;;;;;;;;10367943;28;20033;-60
2023/08/07 12:30:18;;;;;;;0.80;0.80;;;;;;;;;;10368336;28;20088;-60
2023/08/07 12:35:18;;;;;;;1.63;0.80;;;;;;;;;;10367427;28;20115;-60
2023/08/07 12:40:20;;;;;;;1.10;0.88;;;;;;;;;;10367707;28;20030;-60
2023/08/07 12:45:21;;;;;;;1.33;0.70;;;;;;;;;;10369820;28;20037;-61
2023/08/07 12:50:22;;;;;;;2.80;0.90;;;;;;;;;;10376073;28;20482;-64
2023/08/07 12:55:23;;;;;;;1.17;0.80;;;;;;;;;;10375880;28;20032;-60
2023/08/07 13:00:23;;;;;;;4.65;1.00;;;;;;;;;;10376159;28;20029;-60
2023/08/07 13:05:24;;;;;;;0.82;0.68;;;;;;;;;;10375448;28;20100;-60
2023/08/07 13:10:28;;;;;;;5.38;0.65;;;;;;;;;;10375606;28;20080;-61
2023/08/07 13:15:29;;;;;;;3.17;1.13;;;;;;;;;;10375413;28;20038;-60
2023/08/07 13:20:33;;;;;;;1.17;0.73;;;;;;;;;;10375819;28;20033;-60
2023/08/07 13:25:34;;;;;;;0.82;0.70;;;;;;;;;;10374910;28;20056;-60
2023/08/07 13:30:34;;;;;;;6.63;0.90;;;;;;;;;;10374955;28;20458;-60
2023/08/07 13:35:35;;;;;;;1.77;0.70;;;;;;;;;;10374623;28;20509;-60
2023/08/07 13:40:36;;;;;;;0.85;0.70;;;;;;;;;;10374643;28;20466;-60
2023/08/07 13:45:37;;;;;;;1.67;0.75;;;;;;;;;;10374367;28;20422;-60
2023/08/07 13:50:38;;;;;;;2.47;0.80;;;;;;;;;;10374164;28;20026;-60
2023/08/07 13:55:38;;;;;;;2.40;0.70;;;;;;;;;;10372469;28;20034;-60
2023/08/07 14:00:40;;;;;;;2.70;0.93;;;;;;;;;;10373425;28;20022;-60
2023/08/07 14:05:40;;;;;;;3.58;0.88;;;;;;;;;;10373117;28;20111;-60
2023/08/07 14:10:41;;;;;;;1.70;0.80;;;;;;;;;;10372999;28;20076;-60
2023/08/07 14:15:42;;;;;;;0.80;0.75;;;;;;;;;;10373288;28;20038;-60
2023/08/07 14:20:42;;;;;;;0.95;0.70;;;;;;;;;;10373219;28;20021;-60
2023/08/07 14:25:43;;;;;;;1.95;0.90;;;;;;;;;;10372390;28;20037;-60
2023/08/07 14:30:43;;;;;;;1.02;0.93;;;;;;;;;;10372218;28;20061;-60
2023/08/07 14:35:44;;;;;;;1.50;0.80;;;;;;;;;;10371809;28;20042;-60
2023/08/07 14:40:45;;;;;;;1.10;0.82;;;;;;;;;;10372197;28;20029;-60
2023/08/07 14:45:46;;;;;;;1.23;0.70;;;;;;;;;;10371055;28;20394;-60
2023/08/07 14:50:46;;;;;;;0.60;0.60;;;;;;;;;;10371107;28;20040;-60
2023/08/07 14:55:47;;;;;;;1.58;0.65;;;;;;;;;;10371619;28;20034;-60
2023/08/07 15:00:50;;;;;;;1.58;1.00;;;;;;;;;;10371574;28;20494;-60
2023/08/07 15:05:50;;;;;;;1.65;0.60;;;;;;;;;;10371254;28;20034;-60
2023/08/07 15:10:53;;;;;;;1.50;0.80;;;;;;;;;;10370606;28;20075;-59
2023/08/07 15:15:53;;;;;;;1.40;0.80;;;;;;;;;;10370706;28;20044;-59
2023/08/07 15:20:54;;;;;;;3.95;0.90;;;;;;;;;;10370356;28;20366;-60
2023/08/07 15:25:55;;;;;;;2.10;1.00;;;;;;;;;;10370513;28;20038;-60
2023/08/07 15:30:55;;;;;;;3.20;0.98;;;;;;;;;;10370551;28;20109;-60
2023/08/07 15:35:56;;;;;;;6.97;1.20;;;;;;;;;;10369493;28;20461;-60
2023/08/07 15:40:56;;;;;;;4.75;1.00;;;;;;;;;;10369536;28;20132;-60
2023/08/07 15:45:57;;;;;;;2.90;1.08;;;;;;;;;;10369348;28;20084;-60
2023/08/07 15:50:57;;;;;;;1.10;1.00;;;;;;;;;;10369857;28;20112;-60
2023/08/07 15:55:58;;;;;;;2.72;0.98;;;;;;;;;;10369268;28;20041;-60
2023/08/07 16:00:59;;;;;;;3.42;1.00;;;;;;;;;;10369567;28;20022;-60
2023/08/07 16:05:59;;;;;;;2.05;1.10;;;;;;;;;;10368703;28;20040;-60
2023/08/07 16:11:02;;;;;;;3.42;1.02;;;;;;;;;;10368534;28;20458;-59
2023/08/07 16:16:03;;;;;;;3.10;1.10;;;;;;;;;;10368370;28;20041;-60
2023/08/07 16:21:03;;;;;;;0.93;0.77;;;;;;;;;;10368922;28;20030;-60
2023/08/07 16:26:04;;;;;;;1.85;0.80;;;;;;;;;;10368171;28;20026;-60
2023/08/07 16:31:05;;;;;;;2.97;1.10;;;;;;;;;;10368528;28;20026;-60
2023/08/07 16:36:06;;;;;;;1.10;0.68;;;;;;;;;;10367833;28;20042;-60
2023/08/07 16:41:06;;;;;;;2.13;0.90;;;;;;;;;;10368421;28;20123;-60
2023/08/07 16:46:07;;;;;;;1.17;0.85;;;;;;;;;;10367712;28;20462;-60
2023/08/07 16:51:11;;;;;;;1.23;1.00;;;;;;;;;;10367589;28;20520;-60
2023/08/07 16:56:12;;;;;;;1.20;0.82;;;;;;;;;;10367456;28;20025;-60
2023/08/07 17:01:12;;;;;;;1.60;0.90;;;;;;;;;;10367518;28;20038;-61
2023/08/07 17:06:13;;;;;;;2.63;1.10;;;;;;;;;;10367383;28;20049;-60
2023/08/07 17:11:14;;;;;;;1.95;1.15;;;;;;;;;;10367663;28;20071;-60
2023/08/07 17:16:14;;;;;;;1.15;0.80;;;;;;;;;;10367073;28;20022;-60
2023/08/07 17:21:15;;;;;;;0.70;0.70;;;;;;;;;;10367408;28;20076;-60
2023/08/07 17:26:16;;;;;;;0.93;0.80;;;;;;;;;;10366259;28;20033;-60
2023/08/07 17:31:17;;;;;;;9.73;1.27;;;;;;;;;;10368504;28;20512;-64
2023/08/07 17:36:18;;;;;;;1.70;1.23;;;;;;;;;;10373297;28;20140;-63
2023/08/07 17:41:20;;;;;;;2.95;1.02;;;;;;;;;;10373864;28;20041;-63
2023/08/07 17:46:21;;;;;;;5.40;1.10;;;;;;;;;;10373032;28;20041;-63
2023/08/07 17:51:21;;;;;;;2.88;0.90;;;;;;;;;;10373086;28;20129;-63
2023/08/07 17:56:23;;;;;;;2.35;1.10;;;;;;;;;;10373622;28;20041;-63
2023/08/07 18:01:24;;;;;;;1.55;1.08;;;;;;;;;;10372672;28;20033;-63
2023/08/07 18:06:24;;;;;;;1.80;1.10;;;;;;;;;;10371648;28;20432;-67
2023/08/07 18:11:25;;;;;;;4.10;1.25;;;;;;;;;;10370875;28;20043;-62
2023/08/07 18:16:26;;;;;;;1.50;1.23;;;;;;;;;;10370784;28;20539;-63
2023/08/07 18:21:26;;;;;;;3.17;1.20;;;;;;;;;;10371075;28;20555;-64
2023/08/07 18:26:27;;;;;;;8.00;0.95;;;;;;;;;;10372182;28;20418;-65
2023/08/07 18:31:30;;;;;;;4.00;1.23;;;;;;;;;;10372579;28;20030;-65
2023/08/07 18:36:30;;;;;;;0.77;0.77;;;;;;;;;;10371885;28;20231;-65
2023/08/07 18:41:31;;;;;;;5.75;1.48;;;;;;;;;;10371593;28;20366;-68
2023/08/07 18:46:32;;;;;;;9.45;1.65;;;;;;;;;;10370697;28;20567;-64
2023/08/07 18:51:34;;;;;;;5.68;1.77;;;;;;;;;;10371306;28;20036;-64
2023/08/07 18:56:34;;;;;;;2.95;1.30;;;;;;;;;;10370944;28;20029;-64
2023/08/07 19:01:35;;;;;;;5.07;1.52;;;;;;;;;;10370712;28;20033;-63
2023/08/07 19:06:36;;;;;;;6.93;1.45;;;;;;;;;;10370700;28;20029;-64
2023/08/07 19:11:37;;;;;;;4.32;1.13;;;;;;;;;;10370213;28;20434;-64
2023/08/07 19:16:38;;;;;;;4.13;1.40;;;;;;;;;;10368792;28;20040;-64
2023/08/07 19:21:39;;;;;;;2.22;1.23;;;;;;;;;;10370073;28;20405;-67
2023/08/07 19:26:40;;;;;;;4.40;1.50;;;;;;;;;;10369446;28;20025;-63
2023/08/07 19:31:40;;;;;;;8.60;1.83;;;;;;;;;;10369295;28;20261;-66
2023/08/07 19:36:41;;;;;;;3.15;2.72;;;;;;;;;;10369685;28;20049;-61
2023/08/07 19:41:42;;;;;;;8.02;2.30;;;;;;;;;;10369807;28;20049;-60
2023/08/07 19:46:42;;;;;;;2.83;2.00;;;;;;;;;;10369429;28;20531;-61
2023/08/07 19:51:43;;;;;;;7.15;2.15;;;;;;;;;;10369001;28;20402;-60
2023/08/07 19:56:44;;;;;;;3.67;1.98;;;;;;;;;;10367317;28;20077;-60
2023/08/07 20:01:44;;;;;;;3.90;2.28;;;;;;;;;;10368455;28;20025;-61
2023/08/07 20:06:45;;;;;;;3.60;2.40;;;;;;;;;;10368924;28;20121;-60
2023/08/07 20:11:45;;;;;;;3.22;2.03;;;;;;;;;;10368300;28;20033;-60
2023/08/07 20:16:46;;;;;;;3.53;2.08;;;;;;;;;;10368546;28;20485;-61
2023/08/07 20:21:47;;;;;;;3.08;2.00;;;;;;;;;;10368082;28;20025;-60
2023/08/07 20:26:47;;;;;;;1.83;1.52;;;;;;;;;;10365595;28;20033;-61
2023/08/07 20:31:48;;;;;;;2.00;1.40;;;;;;;;;;10366295;28;20038;-60
2023/08/07 20:36:48;;;;;;;3.08;1.50;;;;;;;;;;10366240;28;20277;-61
2023/08/07 20:41:49;;;;;;;2.92;1.58;;;;;;;;;;10366476;28;20033;-60
2023/08/07 20:46:49;;;;;;;2.28;1.58;;;;;;;;;;10365971;28;20021;-62
2023/08/07 20:51:50;;;;;;;17.13;2.25;;;;;;;;;;10367701;28;20030;-60
2023/08/07 20:56:50;;;;;;;10.25;2.13;;;;;;;;;;10367183;28;20113;-61
2023/08/07 21:01:51;;;;;;;20.95;2.20;;;;;;;;;;10367856;28;20030;-60
2023/08/07 21:06:52;;;;;;;11.02;2.25;;;;;;;;;;10371519;28;20493;-60
2023/08/07 21:11:53;;;;;;;11.68;1.83;;;;;;;;;;10375411;28;20041;-64
2023/08/07 21:16:54;;;;;;;7.63;1.95;;;;;;;;;;10374629;28;20061;-59
2023/08/07 21:21:54;;;;;;;15.40;1.88;;;;;;;;;;10374094;28;20029;-59
2023/08/07 21:26:55;;;;;;;5.38;1.50;;;;;;;;;;10374592;28;20033;-59
2023/08/07 21:31:55;;;;;;;8.75;1.33;;;;;;;;;;10374912;28;20084;-60
2023/08/07 21:36:56;;;;;;;16.35;2.00;;;;;;;;;;10373592;28;20489;-61
2023/08/07 21:41:57;;;;;;;6.10;2.00;;;;;;;;;;10374423;28;20038;-60
2023/08/07 21:46:57;;;;;;;9.70;1.88;;;;;;;;;;10374768;28;20374;-59
2023/08/07 21:51:58;;;;;;;2.63;1.25;;;;;;;;;;10373473;28;20450;-58
2023/08/07 21:57:02;;;;;;;19.00;1.40;;;;;;;;;;10374034;28;20049;-60
2023/08/07 22:02:03;;;;;;;18.10;1.75;;;;;;;;;;10372812;28;20409;-59
2023/08/07 22:07:05;;;;;;;3.40;1.48;;;;;;;;;;10372919;28;20550;-59
2023/08/07 22:12:06;;;;;;;3.88;1.10;;;;;;;;;;10372649;28;20385;-59
2023/08/07 22:17:07;;;;;;;3.55;1.23;;;;;;;;;;10371944;28;20061;-59
2023/08/07 22:22:07;;;;;;;1.70;1.10;;;;;;;;;;10372267;28;20029;-59
2023/08/07 22:27:08;;;;;;;2.47;1.30;;;;;;;;;;10371981;28;20022;-59
2023/08/07 22:32:09;;;;;;;2.35;1.23;;;;;;;;;;10372571;28;20041;-59
2023/08/07 22:37:09;;;;;;;4.25;1.30;;;;;;;;;;10371800;28;20050;-60
2023/08/07 22:42:10;;;;;;;2.65;1.20;;;;;;;;;;10372039;28;20120;-58
2023/08/07 22:47:10;;;;;;;1.83;0.98;;;;;;;;;;10371703;28;20425;-58
2023/08/07 22:52:11;;;;;;;1.30;1.08;;;;;;;;;;10371529;28;20496;-62
2023/08/07 22:57:12;;;;;;;2.40;1.33;;;;;;;;;;10371599;28;20564;-59
2023/08/07 23:02:12;;;;;;;8.50;1.33;;;;;;;;;;10370833;28;20026;-60
2023/08/07 23:07:13;;;;;;;7.70;1.00;;;;;;;;;;10370980;28;20041;-60
2023/08/07 23:12:13;;;;;;;4.50;0.93;;;;;;;;;;10370393;28;20029;-60
2023/08/07 23:17:17;;;;;;;1.02;0.93;;;;;;;;;;10369924;28;20030;-59
2023/08/07 23:22:18;;;;;;;8.55;1.23;;;;;;;;;;10370374;28;20076;-60
2023/08/07 23:27:18;;;;;;;2.17;1.40;;;;;;;;;;10370473;28;20022;-60
2023/08/07 23:32:19;;;;;;;1.52;0.93;;;;;;;;;;10368878;28;20025;-65
2023/08/07 23:37:19;;;;;;;1.00;0.90;;;;;;;;;;10369733;28;20053;-60
2023/08/07 23:42:20;;;;;;;4.40;1.00;;;;;;;;;;10369565;28;20054;-61
2023/08/07 23:47:21;;;;;;;1.13;1.05;;;;;;;;;;10369254;28;20105;-60
2023/08/07 23:52:21;;;;;;;1.90;1.00;;;;;;;;;;10369724;28;20022;-60
2023/08/07 23:57:22;;;;;;;2.65;0.93;;;;;;;;;;10369405;28;20324;-60
